Latest Coastal Weather Observations for Willis Island

IDQ60701

Issued at 3:31 pm EST Sunday 1 February 2015 (issued every 10 minutes, with the page automatically refreshed every 10 minutes)

About coastal observations | Map of coastal stations | Coastal observations for QLD | Marine services | Other Formats
Station Details ID: 200283 Name: WILLIS ISLAND Lat: -16.29 Lon: 149.97 Height: 9.29 m
Data from the previous 72 hours. | See also: Recent months at Willis Island
Date/Time
EST
Temp

°C
Wind Pressure Rain
since 9am
mm
Weather Cloud Vis
km
Sea
Height
m
Swell
Dir
 
Speed
knots
Gust
knots
hPa Trend Height
m
Period
s
Dir
01/03:30pm 30.1 SW 13 16 1005.1 - 0.0 - - - - - - -
01/03:00pm 30.1 SW 12 14 1005.2 R 0.0 Fine Partly cloudy 40 <0.5 0.3 5 SE
01/02:30pm 30.1 SW 13 15 1005.4 - 0.0 - - - - - - -
01/02:00pm 30.2 SW 13 15 1005.5 - 0.0 - - - - - - -
01/01:30pm 30.5 SW 13 16 1005.7 - 0.0 - - - - - - -
01/01:00pm 30.6 SW 12 13 1005.9 - 0.0 - - - - - - -
01/12:30pm 30.3 SW 11 13 1006.3 - 0.0 - - - - - - -
01/12:00pm 29.6 SSW 12 14 1006.5 S 0.0 Fine Partly cloudy 40 <0.5 0.3 10 SE
01/11:30am 30.0 SSW 11 13 1006.8 - 0.0 - - - - - - -
01/11:00am 30.1 SSW 11 14 1007.2 - 0.0 - - - - - - -
01/10:30am 29.5 SSW 11 14 1007.3 - 0.0 - - - - - - -
01/10:00am 29.6 SSW 10 12 1007.6 - 0.0 - - - - - - -
01/09:30am 29.4 SW 8 10 1007.5 - 0.0 - - - - - - -
01/09:00am 29.6 SW 8 10 1007.4 F 0.0 Fine Mostly cloudy 40 <0.5 0.3 10 SE
01/08:30am 29.1 SW 8 11 1007.4 - 0.0 - - - - - - -
01/08:00am 28.8 SW 8 10 1007.2 - 0.0 - - - - - - -
01/07:30am 28.6 SSW 9 11 1007.2 - 0.0 - - - - - - -
01/07:00am 28.2 SSW 10 11 1007.0 - 0.0 - - - - - - -
01/06:30am 28.0 SSW 9 12 1006.5 - 0.0 - - - - - - -
01/06:00am 27.7 S 8 9 1006.0 - 0.0 - - - - - - -
01/05:30am 27.3 S 6 8 1005.5 - 0.0 - - - - - - -
01/05:00am 27.7 S 8 10 1005.1 - 0.0 - - - - - - -
01/04:30am 27.6 SSW 8 10 1005.0 - 0.0 - - - - - - -
01/04:00am 27.5 S 7 9 1005.0 - 0.0 - - - - - - -
01/03:30am 27.6 S 8 11 1005.1 - 0.0 - - - - - - -
01/03:00am 27.5 S 9 11 1005.0 - 0.0 - - - - - - -
01/02:30am 27.7 S 9 11 1005.3 - 0.0 - - - - - - -
01/02:00am 27.6 S 7 9 1005.4 - 0.0 - - - - - - -
01/01:30am 27.6 S 7 9 1005.8 - 0.0 - - - - - - -
01/01:00am 27.3 SSE 6 8 1006.1 - 0.0 - - - - - - -
01/12:30am 27.8 S 10 11 1006.7 - 0.0 - - - - - - -
01/12:00am 28.0 S 10 12 1007.0 - 0.0 - - - - - - -
 
Date/Time
EST
Temp

°C
Wind Pressure Rain
since 9am
mm
Weather Cloud Vis
km
Sea
Height
m
Swell
Dir
 
Speed
knots
Gust
knots
hPa Trend Height
m
Period
s
Dir
31/11:30pm 28.2 S 11 14 1007.4 - 0.0 - - - - - - -
31/11:00pm 28.2 S 13 14 1007.8 - 0.0 - - - - - - -
31/10:30pm 28.3 S 14 16 1007.7 - 0.0 - - - - - - -
31/10:00pm 28.3 S 14 16 1007.7 - 0.0 - - - - - - -
31/09:30pm 28.5 S 15 17 1007.5 - 0.0 - - - - - - -
31/09:00pm 28.6 S 13 16 1007.4 - 0.0 - - - - - - -
31/08:30pm 28.6 S 15 18 1007.0 - 0.0 - - - - - - -
31/08:00pm 28.8 S 15 17 1006.6 - 0.0 - - - - - - -
31/07:30pm 28.7 S 14 16 1006.0 - 0.0 - - - - - - -
31/07:00pm 28.8 S 15 18 1005.8 - 0.0 - - - - - - -
31/06:30pm 29.0 S 15 17 1005.6 - 0.0 - - - - - - -
31/06:00pm 29.4 S 13 16 1005.3 R 0.0 Distant precip. Partly cloudy 40 <0.5 0.5 7 NW
31/05:30pm 29.5 SSW 13 16 1005.1 - 0.0 - - - - - - -
31/05:00pm 29.5 SSW 13 15 1004.8 - 0.0 - - - - - - -
31/04:30pm 29.9 SSW 14 15 1004.6 - 0.0 - - - - - - -
31/04:00pm 29.9 SSW 13 15 1004.2 - 0.0 - - - - - - -
31/03:30pm 30.1 S 13 16 1004.5 - 0.0 - - - - - - -
31/03:00pm 30.5 S 12 15 1004.5 R 0.0 Fine Partly cloudy 40 <0.1 0.3 7 NW
31/02:30pm 30.3 S 13 15 1004.8 - 0.0 - - - - - - -
31/02:00pm 30.7 S 13 15 1005.1 - 0.0 - - - - - - -
31/01:30pm 30.6 S 12 14 1005.3 - 0.0 - - - - - - -
31/01:00pm 30.4 S 12 14 1005.4 - 0.0 - - - - - - -
31/12:30pm 30.3 S 12 14 1005.6 - 0.0 - - - - - - -
31/12:00pm 30.9 SSW 11 12 1005.8 F 0.0 Fine Mostly clear 40 <0.5 1.0 8 -
31/11:30am 30.2 S 11 13 1005.9 - 0.0 - - - - - - -
31/11:00am 29.9 SSW 10 12 1006.4 - 0.0 - - - - - - -
31/10:30am 29.9 SSW 10 11 1006.8 - 0.0 - - - - - - -
31/10:00am 29.9 S 10 11 1007.2 - 0.0 - - - - - - -
31/09:30am 29.8 S 10 11 1007.4 - 0.0 - - - - - - -
31/09:00am 29.5 S 10 11 1007.4 R 0.0 Distant precip. Mostly clear 40 <0.5 1.0 8 -
31/08:30am 29.4 S 9 11 1007.6 - 0.0 - - - - - - -
31/08:00am 29.1 S 10 11 1007.2 - 0.0 - - - - - - -
31/07:30am 28.7 S 11 13 1007.0 - 0.0 - - - - - - -
31/07:00am 28.4 SW 8 11 1006.6 - 0.0 - - - - - - -
31/06:30am 28.0 SSW 9 11 1006.3 - 0.0 - - - - - - -
31/06:00am 28.2 S 9 11 1005.7 - 0.0 - - - - - - -
31/05:30am 28.0 S 8 10 1005.4 - 0.0 - - - - - - -
31/05:00am 28.0 S 10 11 1005.1 - 0.0 - - - - - - -
31/04:30am 28.1 S 10 12 1004.8 - 0.0 - - - - - - -
31/04:00am 28.0 S 10 11 1004.8 - 0.0 - - - - - - -
31/03:30am 28.1 S 11 13 1004.7 - 0.0 - - - - - - -
31/03:00am 28.0 S 11 13 1004.6 - 0.0 - - - - - - -
31/02:30am 28.2 S 14 16 1004.8 - 0.0 - - - - - - -
31/02:00am 28.2 S 10 12 1005.0 - 0.0 - - - - - - -
31/01:30am 28.3 S 11 13 1005.1 - 0.0 - - - - - - -
31/01:00am 28.2 S 12 14 1005.2 - 0.0 - - - - - - -
31/12:30am 28.3 S 12 13 1005.4 - 0.0 - - - - - - -
31/12:00am 28.4 S 12 14 1005.4 - 0.0 - - - - - - -
 
Date/Time
EST
Temp

°C
Wind Pressure Rain
since 9am
mm
Weather Cloud Vis
km
Sea
Height
m
Swell
Dir
 
Speed
knots
Gust
knots
hPa Trend Height
m
Period
s
Dir
30/11:30pm 28.4 S 10 13 1005.9 - 0.0 - - - - - - -
30/11:00pm 28.5 S 10 12 1006.2 - 0.0 - - - - - - -
30/10:30pm 28.6 S 11 13 1006.4 - 0.0 - - - - - - -
30/10:00pm 28.6 S 10 12 1006.5 - 0.0 - - - - - - -
30/09:30pm 28.8 S 10 12 1006.3 - 0.0 - - - - - - -
30/09:00pm 28.7 S 11 12 1005.9 - 0.0 - - - - - - -
30/08:30pm 28.8 S 10 11 1005.8 - 0.0 - - - - - - -
30/08:00pm 28.9 S 10 12 1005.6 - 0.0 - - - - - - -
30/07:30pm 28.7 S 8 9 1005.4 - 0.0 - - - - - - -
30/07:00pm 28.7 SSW 7 9 1005.1 - 0.0 - - - - - - -
30/06:30pm 28.9 S 8 10 1004.7 - 0.0 - - - - - - -
30/06:00pm 29.2 SSW 9 10 1004.3 R 0.0 Fine Mostly clear 40 <0.5 0.5 8 NW
30/05:30pm 29.6 SSW 10 12 1004.1 - 0.0 - - - - - - -
30/05:00pm 30.0 S 9 10 1003.7 - 0.0 - - - - - - -
30/04:30pm 29.4 SSW 9 11 1003.4 - 0.0 - - - - - - -
30/04:00pm 30.3 SSW 9 11 1003.2 - 0.0 - - - - - - -
30/03:30pm 30.3 SSW 9 11 1003.5 - 0.0 - - - - - - -
30/03:00pm 30.6 SSW 9 11 1003.8 S 0.0 Fine Partly cloudy 40 <0.5 0.5 6 NW
30/02:30pm 30.6 SW 8 10 1003.9 - 0.0 - - - - - - -
30/02:00pm 30.0 SW 8 9 1004.1 - 0.0 - - - - - - -
30/01:30pm 31.0 SW 8 9 1004.5 - 0.0 - - - - - - -
30/01:00pm 30.7 WSW 7 8 1004.8 - 0.0 - - - - - - -
30/12:30pm 30.7 SW 7 8 1004.9 - 0.0 - - - - - - -
30/12:00pm 30.3 SSW 8 9 1005.3 F 0.0 Distant precip. Partly cloudy 40 <0.5 1.0 11 NW
30/11:30am 30.2 SSW 9 11 1005.4 - 0.0 - - - - - - -
30/11:00am 30.4 SW 12 14 1005.7 - 0.0 - - - - - - -
30/10:30am 29.9 SW 11 13 1005.7 - 0.0 - - - - - - -
30/10:00am 29.9 WSW 8 11 1006.0 - 0.0 - - - - - - -
30/09:30am 29.3 WSW 12 14 1006.2 - 0.0 - - - - - - -
30/09:00am 28.3 WSW 8 9 1006.3 R 0.0 Distant precip. Partly cloudy 40 <0.5 1.0 11 NW
30/08:30am 27.8 WSW 12 13 1006.2 - 0.0 - - - - - - -
30/08:00am 27.2 SW 13 16 1005.8 - 0.0 - - - - - - -
30/07:30am 26.8 WSW 14 16 1005.7 - 0.0 - - - - - - -
30/07:00am 26.7 SW 13 15 1005.8 - 0.0 - - - - - - -
30/06:30am 26.2 SSW 17 21 1005.6 - 0.0 - - - - - - -
30/06:01am 26.2 SSW 20 24 1004.9 - 0.0 - - - - - - -
30/06:00am 27.0 WSW 15 21 1004.9 - 0.0 - - - - - - -
30/05:30am 28.0 WNW 14 16 1004.0 - 0.0 - - - - - - -
30/05:00am 27.8 WNW 12 15 1003.9 - 0.0 - - - - - - -
30/04:30am 27.9 NW 11 13 1004.0 - 0.0 - - - - - - -
30/04:00am 27.9 WNW 11 12 1003.9 - 0.0 - - - - - - -
30/03:30am 27.9 WNW 11 12 1003.7 - 0.0 - - - - - - -
30/03:00am 27.9 WNW 9 10 1003.8 - 0.0 - - - - - - -
30/02:30am 27.9 WNW 9 11 1003.8 - 0.0 - - - - - - -
30/02:00am 28.0 NW 9 10 1004.0 - 0.0 - - - - - - -
30/01:30am 28.0 WNW 8 9 1004.3 - 0.0 - - - - - - -
30/01:00am 28.0 WNW 8 8 1004.7 - 0.0 - - - - - - -
30/12:30am 28.1 WNW 9 10 1004.9 - 0.0 - - - - - - -
30/12:00am 28.1 WNW 8 9 1005.1 - 0.0 - - - - - - -
 
Date/Time
EST
Temp

°C
Wind Pressure Rain
since 9am
mm
Weather Cloud Vis
km
Sea
Height
m
Swell
Dir
 
Speed
knots
Gust
knots
hPa Trend Height
m
Period
s
Dir
29/11:30pm 28.2 WNW 8 9 1005.3 - 0.0 - - - - - - -
29/11:00pm 28.5 W 9 10 1005.6 - 0.0 - - - - - - -
29/10:30pm 28.5 W 10 11 1005.7 - 0.0 - - - - - - -
29/10:00pm 28.4 W 9 10 1005.7 - 0.0 - - - - - - -
29/09:30pm 28.4 W 8 10 1005.3 - 0.0 - - - - - - -
29/09:00pm 28.6 W 11 12 1005.0 - 0.0 - - - - - - -
29/08:30pm 28.7 W 10 12 1004.9 - 0.0 - - - - - - -
29/08:00pm 28.8 W 12 13 1004.8 - 0.0 - - - - - - -
29/07:30pm 28.8 W 13 14 1004.5 - 0.0 - - - - - - -
29/07:00pm 28.7 W 12 15 1004.2 - 0.0 - - - - - - -
29/06:30pm 29.0 WNW 11 13 1003.8 - 0.0 - - - - - - -
29/06:00pm 29.6 NW 10 12 1003.3 R 0.0 Fine Partly cloudy 30 1 1.2 10 NW
29/05:30pm 30.3 NW 7 9 1002.9 - 0.0 - - - - - - -
29/05:00pm 30.4 NW 9 12 1002.6 - 0.0 - - - - - - -
29/04:30pm 30.8 WNW 10 11 1002.3 - 0.0 - - - - - - -
29/04:00pm 31.3 WNW 11 13 1002.2 - 0.0 - - - - - - -

Other Formats:

Comma delimited format used in spreadsheet applications
http://www.bom.gov.au/fwo/IDQ60701/IDQ60701.94299.axf

JavaScript Object Notation format (JSON) in row-major order
http://www.bom.gov.au/fwo/IDQ60701/IDQ60701.94299.json